sensor_id;sensor_type;location;lat;lon;timestamp;P1;durP1;ratioP1;P2;durP2;ratioP2
8708;SDS011;4391;48.678;9.280;2023-06-26T00:01:57;13.68;;;5.68;;
8708;SDS011;4391;48.678;9.280;2023-06-26T00:04:23;10.38;;;5.65;;
8708;SDS011;4391;48.678;9.280;2023-06-26T00:06:50;11.37;;;5.57;;
8708;SDS011;4391;48.678;9.280;2023-06-26T00:09:17;11.23;;;5.75;;
8708;SDS011;4391;48.678;9.280;2023-06-26T00:11:45;9.55;;;5.45;;
8708;SDS011;4391;48.678;9.280;2023-06-26T00:14:12;9.98;;;5.28;;
8708;SDS011;4391;48.678;9.280;2023-06-26T00:16:39;13.35;;;6.10;;
8708;SDS011;4391;48.678;9.280;2023-06-26T00:19:07;11.40;;;5.63;;
8708;SDS011;4391;48.678;9.280;2023-06-26T00:21:34;11.43;;;5.43;;
8708;SDS011;4391;48.678;9.280;2023-06-26T00:24:01;11.18;;;5.20;;
8708;SDS011;4391;48.678;9.280;2023-06-26T00:26:28;11.07;;;5.65;;
8708;SDS011;4391;48.678;9.280;2023-06-26T00:28:56;12.43;;;5.72;;
8708;SDS011;4391;48.678;9.280;2023-06-26T00:31:25;12.40;;;5.70;;
8708;SDS011;4391;48.678;9.280;2023-06-26T00:33:52;10.63;;;5.57;;
8708;SDS011;4391;48.678;9.280;2023-06-26T00:36:18;10.32;;;5.68;;
8708;SDS011;4391;48.678;9.280;2023-06-26T00:38:47;9.65;;;5.03;;
8708;SDS011;4391;48.678;9.280;2023-06-26T00:41:14;10.27;;;5.40;;
8708;SDS011;4391;48.678;9.280;2023-06-26T00:43:41;10.23;;;5.53;;
8708;SDS011;4391;48.678;9.280;2023-06-26T00:46:10;11.68;;;6.05;;
8708;SDS011;4391;48.678;9.280;2023-06-26T00:48:39;11.93;;;5.55;;
8708;SDS011;4391;48.678;9.280;2023-06-26T00:51:08;13.40;;;5.82;;
8708;SDS011;4391;48.678;9.280;2023-06-26T00:53:35;11.93;;;5.60;;
8708;SDS011;4391;48.678;9.280;2023-06-26T00:56:04;11.03;;;5.63;;
8708;SDS011;4391;48.678;9.280;2023-06-26T00:58:31;11.27;;;5.72;;
8708;SDS011;4391;48.678;9.280;2023-06-26T01:00:58;9.13;;;5.15;;
8708;SDS011;4391;48.678;9.280;2023-06-26T01:03:27;12.25;;;5.35;;
8708;SDS011;4391;48.678;9.280;2023-06-26T01:05:54;10.85;;;5.75;;
8708;SDS011;4391;48.678;9.280;2023-06-26T01:08:25;9.33;;;5.40;;
8708;SDS011;4391;48.678;9.280;2023-06-26T01:10:52;11.90;;;5.63;;
8708;SDS011;4391;48.678;9.280;2023-06-26T01:13:19;11.65;;;5.57;;
8708;SDS011;4391;48.678;9.280;2023-06-26T01:15:47;12.25;;;6.03;;
8708;SDS011;4391;48.678;9.280;2023-06-26T01:18:14;11.98;;;5.43;;
8708;SDS011;4391;48.678;9.280;2023-06-26T01:20:43;11.13;;;5.53;;
8708;SDS011;4391;48.678;9.280;2023-06-26T01:23:12;11.05;;;5.28;;
8708;SDS011;4391;48.678;9.280;2023-06-26T01:25:46;11.45;;;5.60;;
8708;SDS011;4391;48.678;9.280;2023-06-26T01:28:23;10.75;;;5.60;;
8708;SDS011;4391;48.678;9.280;2023-06-26T01:30:51;11.18;;;5.75;;
8708;SDS011;4391;48.678;9.280;2023-06-26T01:33:20;10.40;;;5.87;;
8708;SDS011;4391;48.678;9.280;2023-06-26T01:35:49;10.15;;;5.47;;
8708;SDS011;4391;48.678;9.280;2023-06-26T01:38:17;10.70;;;5.75;;
8708;SDS011;4391;48.678;9.280;2023-06-26T01:40:45;11.80;;;5.60;;
8708;SDS011;4391;48.678;9.280;2023-06-26T01:43:15;10.60;;;5.78;;
8708;SDS011;4391;48.678;9.280;2023-06-26T01:45:53;10.97;;;5.67;;
8708;SDS011;4391;48.678;9.280;2023-06-26T01:48:23;11.60;;;5.68;;
8708;SDS011;4391;48.678;9.280;2023-06-26T01:50:54;11.70;;;5.90;;
8708;SDS011;4391;48.678;9.280;2023-06-26T01:53:24;10.18;;;5.45;;
8708;SDS011;4391;48.678;9.280;2023-06-26T01:55:53;11.00;;;5.53;;
8708;SDS011;4391;48.678;9.280;2023-06-26T01:58:26;16.90;;;5.90;;
8708;SDS011;4391;48.678;9.280;2023-06-26T02:00:55;12.02;;;5.82;;
8708;SDS011;4391;48.678;9.280;2023-06-26T02:03:22;10.65;;;5.57;;
8708;SDS011;4391;48.678;9.280;2023-06-26T02:05:49;11.52;;;5.57;;
8708;SDS011;4391;48.678;9.280;2023-06-26T02:08:16;10.35;;;5.63;;
8708;SDS011;4391;48.678;9.280;2023-06-26T02:10:43;11.73;;;5.63;;
8708;SDS011;4391;48.678;9.280;2023-06-26T02:13:10;11.05;;;5.80;;
8708;SDS011;4391;48.678;9.280;2023-06-26T02:15:37;9.63;;;5.50;;
8708;SDS011;4391;48.678;9.280;2023-06-26T02:18:06;9.50;;;5.20;;
8708;SDS011;4391;48.678;9.280;2023-06-26T02:20:33;9.85;;;5.38;;
8708;SDS011;4391;48.678;9.280;2023-06-26T02:23:00;11.73;;;5.63;;
8708;SDS011;4391;48.678;9.280;2023-06-26T02:25:27;11.38;;;5.55;;
8708;SDS011;4391;48.678;9.280;2023-06-26T02:27:53;11.00;;;5.72;;
8708;SDS011;4391;48.678;9.280;2023-06-26T02:30:20;10.70;;;6.05;;
8708;SDS011;4391;48.678;9.280;2023-06-26T02:32:47;10.17;;;5.70;;
8708;SDS011;4391;48.678;9.280;2023-06-26T02:35:15;11.10;;;5.90;;
8708;SDS011;4391;48.678;9.280;2023-06-26T02:37:42;10.85;;;5.43;;
8708;SDS011;4391;48.678;9.280;2023-06-26T02:40:09;11.45;;;6.10;;
8708;SDS011;4391;48.678;9.280;2023-06-26T02:42:36;10.82;;;5.57;;
8708;SDS011;4391;48.678;9.280;2023-06-26T02:48:25;10.50;;;5.70;;
8708;SDS011;4391;48.678;9.280;2023-06-26T02:50:54;11.85;;;5.75;;
8708;SDS011;4391;48.678;9.280;2023-06-26T02:53:20;8.73;;;4.95;;
8708;SDS011;4391;48.678;9.280;2023-06-26T02:55:47;12.60;;;5.68;;
8708;SDS011;4391;48.678;9.280;2023-06-26T02:58:14;10.73;;;5.63;;
8708;SDS011;4391;48.678;9.280;2023-06-26T03:00:41;11.07;;;6.17;;
8708;SDS011;4391;48.678;9.280;2023-06-26T03:03:08;11.27;;;5.60;;
8708;SDS011;4391;48.678;9.280;2023-06-26T03:05:35;11.30;;;5.90;;
8708;SDS011;4391;48.678;9.280;2023-06-26T03:08:03;11.18;;;5.60;;
8708;SDS011;4391;48.678;9.280;2023-06-26T03:10:30;13.82;;;6.10;;
8708;SDS011;4391;48.678;9.280;2023-06-26T03:12:57;12.47;;;6.70;;
8708;SDS011;4391;48.678;9.280;2023-06-26T03:15:24;13.82;;;5.57;;
8708;SDS011;4391;48.678;9.280;2023-06-26T03:17:51;11.95;;;5.93;;
8708;SDS011;4391;48.678;9.280;2023-06-26T03:20:18;11.05;;;6.05;;
8708;SDS011;4391;48.678;9.280;2023-06-26T03:22:44;12.02;;;5.68;;
8708;SDS011;4391;48.678;9.280;2023-06-26T03:25:13;11.03;;;6.00;;
8708;SDS011;4391;48.678;9.280;2023-06-26T03:27:39;11.38;;;5.90;;
8708;SDS011;4391;48.678;9.280;2023-06-26T03:30:07;12.38;;;6.25;;
8708;SDS011;4391;48.678;9.280;2023-06-26T03:32:34;11.95;;;6.00;;
8708;SDS011;4391;48.678;9.280;2023-06-26T03:35:01;10.95;;;5.90;;
8708;SDS011;4391;48.678;9.280;2023-06-26T03:37:29;11.07;;;5.77;;
8708;SDS011;4391;48.678;9.280;2023-06-26T03:39:55;11.80;;;5.93;;
8708;SDS011;4391;48.678;9.280;2023-06-26T03:42:23;11.30;;;5.50;;
8708;SDS011;4391;48.678;9.280;2023-06-26T03:44:50;12.13;;;5.95;;
8708;SDS011;4391;48.678;9.280;2023-06-26T03:47:17;12.52;;;6.20;;
8708;SDS011;4391;48.678;9.280;2023-06-26T03:49:44;12.83;;;6.20;;
8708;SDS011;4391;48.678;9.280;2023-06-26T03:52:10;13.98;;;6.47;;
8708;SDS011;4391;48.678;9.280;2023-06-26T03:54:37;12.88;;;6.15;;
8708;SDS011;4391;48.678;9.280;2023-06-26T03:57:04;11.93;;;6.00;;
8708;SDS011;4391;48.678;9.280;2023-06-26T03:59:32;10.85;;;6.00;;
8708;SDS011;4391;48.678;9.280;2023-06-26T04:01:59;11.60;;;5.77;;
8708;SDS011;4391;48.678;9.280;2023-06-26T04:04:26;11.07;;;5.72;;
8708;SDS011;4391;48.678;9.280;2023-06-26T04:06:53;11.35;;;5.63;;
8708;SDS011;4391;48.678;9.280;2023-06-26T04:09:20;12.85;;;5.82;;
8708;SDS011;4391;48.678;9.280;2023-06-26T04:11:46;11.63;;;5.65;;
8708;SDS011;4391;48.678;9.280;2023-06-26T04:14:13;9.63;;;5.47;;
8708;SDS011;4391;48.678;9.280;2023-06-26T04:16:41;11.40;;;5.05;;
8708;SDS011;4391;48.678;9.280;2023-06-26T04:19:08;10.30;;;5.25;;
8708;SDS011;4391;48.678;9.280;2023-06-26T04:21:35;11.63;;;5.57;;
8708;SDS011;4391;48.678;9.280;2023-06-26T04:24:02;10.05;;;5.55;;
8708;SDS011;4391;48.678;9.280;2023-06-26T04:26:29;11.47;;;5.53;;
8708;SDS011;4391;48.678;9.280;2023-06-26T04:28:56;10.95;;;5.93;;
8708;SDS011;4391;48.678;9.280;2023-06-26T04:31:23;11.73;;;5.88;;
8708;SDS011;4391;48.678;9.280;2023-06-26T04:33:51;10.60;;;5.50;;
8708;SDS011;4391;48.678;9.280;2023-06-26T04:36:19;11.93;;;5.35;;
8708;SDS011;4391;48.678;9.280;2023-06-26T04:38:47;10.83;;;6.13;;
8708;SDS011;4391;48.678;9.280;2023-06-26T04:41:16;10.60;;;5.28;;
8708;SDS011;4391;48.678;9.280;2023-06-26T04:43:43;11.23;;;5.45;;
8708;SDS011;4391;48.678;9.280;2023-06-26T04:46:09;10.85;;;5.18;;
8708;SDS011;4391;48.678;9.280;2023-06-26T04:48:36;9.82;;;5.13;;
8708;SDS011;4391;48.678;9.280;2023-06-26T04:51:04;10.70;;;5.53;;
8708;SDS011;4391;48.678;9.280;2023-06-26T04:53:31;9.43;;;5.13;;
8708;SDS011;4391;48.678;9.280;2023-06-26T04:55:58;12.35;;;6.00;;
8708;SDS011;4391;48.678;9.280;2023-06-26T04:58:25;10.10;;;5.60;;
8708;SDS011;4391;48.678;9.280;2023-06-26T05:00:51;10.43;;;5.60;;
8708;SDS011;4391;48.678;9.280;2023-06-26T05:03:19;10.10;;;5.10;;
8708;SDS011;4391;48.678;9.280;2023-06-26T05:05:47;10.57;;;5.50;;
8708;SDS011;4391;48.678;9.280;2023-06-26T05:08:15;10.73;;;5.10;;
8708;SDS011;4391;48.678;9.280;2023-06-26T05:10:43;10.48;;;5.50;;
8708;SDS011;4391;48.678;9.280;2023-06-26T05:13:10;11.40;;;5.43;;
8708;SDS011;4391;48.678;9.280;2023-06-26T05:15:40;10.30;;;6.03;;
8708;SDS011;4391;48.678;9.280;2023-06-26T05:18:06;10.27;;;5.53;;
8708;SDS011;4391;48.678;9.280;2023-06-26T05:20:34;11.88;;;5.57;;
8708;SDS011;4391;48.678;9.280;2023-06-26T05:23:01;9.90;;;5.00;;
8708;SDS011;4391;48.678;9.280;2023-06-26T05:25:30;12.23;;;5.82;;
8708;SDS011;4391;48.678;9.280;2023-06-26T05:27:58;9.60;;;5.33;;
8708;SDS011;4391;48.678;9.280;2023-06-26T05:30:26;10.40;;;5.45;;
8708;SDS011;4391;48.678;9.280;2023-06-26T05:32:55;9.85;;;5.25;;
8708;SDS011;4391;48.678;9.280;2023-06-26T05:35:24;9.65;;;4.95;;
8708;SDS011;4391;48.678;9.280;2023-06-26T05:37:54;9.38;;;4.82;;
8708;SDS011;4391;48.678;9.280;2023-06-26T05:40:23;9.37;;;4.80;;
8708;SDS011;4391;48.678;9.280;2023-06-26T05:42:52;9.88;;;5.28;;
8708;SDS011;4391;48.678;9.280;2023-06-26T05:45:19;10.48;;;5.18;;
8708;SDS011;4391;48.678;9.280;2023-06-26T05:47:46;11.45;;;5.00;;
8708;SDS011;4391;48.678;9.280;2023-06-26T05:50:15;8.65;;;4.78;;
8708;SDS011;4391;48.678;9.280;2023-06-26T05:52:43;11.27;;;5.57;;
8708;SDS011;4391;48.678;9.280;2023-06-26T05:55:11;8.75;;;4.97;;
8708;SDS011;4391;48.678;9.280;2023-06-26T05:57:39;10.43;;;5.25;;
8708;SDS011;4391;48.678;9.280;2023-06-26T06:00:09;13.93;;;4.95;;
8708;SDS011;4391;48.678;9.280;2023-06-26T06:02:36;9.55;;;4.93;;
8708;SDS011;4391;48.678;9.280;2023-06-26T06:05:04;8.67;;;4.90;;
8708;SDS011;4391;48.678;9.280;2023-06-26T06:07:31;10.32;;;4.90;;
8708;SDS011;4391;48.678;9.280;2023-06-26T06:09:58;9.73;;;4.97;;
8708;SDS011;4391;48.678;9.280;2023-06-26T06:12:25;11.15;;;4.53;;
8708;SDS011;4391;48.678;9.280;2023-06-26T06:14:52;8.05;;;4.40;;
8708;SDS011;4391;48.678;9.280;2023-06-26T06:17:20;9.37;;;5.10;;
8708;SDS011;4391;48.678;9.280;2023-06-26T06:19:47;11.52;;;5.45;;
8708;SDS011;4391;48.678;9.280;2023-06-26T06:22:14;9.63;;;5.53;;
8708;SDS011;4391;48.678;9.280;2023-06-26T06:24:42;9.15;;;5.68;;
8708;SDS011;4391;48.678;9.280;2023-06-26T06:27:10;10.48;;;5.10;;
8708;SDS011;4391;48.678;9.280;2023-06-26T06:29:36;10.23;;;5.03;;
8708;SDS011;4391;48.678;9.280;2023-06-26T06:32:03;8.30;;;4.70;;
8708;SDS011;4391;48.678;9.280;2023-06-26T06:34:32;9.93;;;5.35;;
8708;SDS011;4391;48.678;9.280;2023-06-26T06:36:59;8.85;;;4.80;;
8708;SDS011;4391;48.678;9.280;2023-06-26T06:39:25;11.88;;;5.10;;
8708;SDS011;4391;48.678;9.280;2023-06-26T06:41:52;11.73;;;5.17;;
8708;SDS011;4391;48.678;9.280;2023-06-26T06:44:19;9.05;;;5.00;;
8708;SDS011;4391;48.678;9.280;2023-06-26T06:46:46;8.10;;;4.95;;
8708;SDS011;4391;48.678;9.280;2023-06-26T06:49:13;16.27;;;5.32;;
8708;SDS011;4391;48.678;9.280;2023-06-26T06:51:41;8.63;;;4.93;;
8708;SDS011;4391;48.678;9.280;2023-06-26T06:54:08;9.50;;;4.80;;
8708;SDS011;4391;48.678;9.280;2023-06-26T06:56:35;9.85;;;4.78;;
8708;SDS011;4391;48.678;9.280;2023-06-26T06:59:01;8.48;;;4.60;;
8708;SDS011;4391;48.678;9.280;2023-06-26T07:01:28;10.95;;;4.85;;
8708;SDS011;4391;48.678;9.280;2023-06-26T07:03:56;8.75;;;4.45;;
8708;SDS011;4391;48.678;9.280;2023-06-26T07:06:22;7.93;;;4.57;;
8708;SDS011;4391;48.678;9.280;2023-06-26T07:08:51;8.38;;;4.50;;
8708;SDS011;4391;48.678;9.280;2023-06-26T07:11:17;8.88;;;4.30;;
8708;SDS011;4391;48.678;9.280;2023-06-26T07:13:44;8.35;;;3.78;;
8708;SDS011;4391;48.678;9.280;2023-06-26T07:16:11;6.90;;;4.00;;
8708;SDS011;4391;48.678;9.280;2023-06-26T07:18:40;6.70;;;3.90;;
8708;SDS011;4391;48.678;9.280;2023-06-26T07:21:07;8.40;;;4.45;;
8708;SDS011;4391;48.678;9.280;2023-06-26T07:23:34;7.57;;;4.57;;
8708;SDS011;4391;48.678;9.280;2023-06-26T07:26:02;7.47;;;4.38;;
8708;SDS011;4391;48.678;9.280;2023-06-26T07:28:29;7.88;;;4.00;;
8708;SDS011;4391;48.678;9.280;2023-06-26T07:30:58;6.70;;;3.77;;
8708;SDS011;4391;48.678;9.280;2023-06-26T07:33:25;7.82;;;4.50;;
8708;SDS011;4391;48.678;9.280;2023-06-26T07:35:52;7.78;;;4.28;;
8708;SDS011;4391;48.678;9.280;2023-06-26T07:38:18;7.80;;;3.60;;
8708;SDS011;4391;48.678;9.280;2023-06-26T07:40:45;7.68;;;3.97;;
8708;SDS011;4391;48.678;9.280;2023-06-26T07:43:13;8.67;;;3.90;;
8708;SDS011;4391;48.678;9.280;2023-06-26T07:45:40;7.60;;;3.55;;
8708;SDS011;4391;48.678;9.280;2023-06-26T07:48:07;9.35;;;4.00;;
8708;SDS011;4391;48.678;9.280;2023-06-26T07:50:34;7.60;;;3.58;;
8708;SDS011;4391;48.678;9.280;2023-06-26T07:53:01;7.53;;;4.20;;
8708;SDS011;4391;48.678;9.280;2023-06-26T07:55:31;8.07;;;4.00;;
8708;SDS011;4391;48.678;9.280;2023-06-26T07:57:58;8.30;;;3.40;;
8708;SDS011;4391;48.678;9.280;2023-06-26T08:00:27;8.57;;;3.60;;
8708;SDS011;4391;48.678;9.280;2023-06-26T08:02:54;6.55;;;3.78;;
8708;SDS011;4391;48.678;9.280;2023-06-26T08:05:21;5.97;;;3.50;;
8708;SDS011;4391;48.678;9.280;2023-06-26T08:07:48;6.93;;;3.27;;
8708;SDS011;4391;48.678;9.280;2023-06-26T08:10:15;6.28;;;3.90;;
8708;SDS011;4391;48.678;9.280;2023-06-26T08:12:41;5.68;;;3.10;;
8708;SDS011;4391;48.678;9.280;2023-06-26T08:15:10;7.70;;;4.00;;
8708;SDS011;4391;48.678;9.280;2023-06-26T08:17:39;6.53;;;3.70;;
8708;SDS011;4391;48.678;9.280;2023-06-26T08:20:06;15.30;;;3.70;;
8708;SDS011;4391;48.678;9.280;2023-06-26T08:22:34;7.15;;;3.50;;
8708;SDS011;4391;48.678;9.280;2023-06-26T08:25:01;6.20;;;3.95;;
8708;SDS011;4391;48.678;9.280;2023-06-26T08:27:29;12.50;;;3.70;;
8708;SDS011;4391;48.678;9.280;2023-06-26T08:29:56;8.30;;;3.42;;
8708;SDS011;4391;48.678;9.280;2023-06-26T08:32:22;8.10;;;3.73;;
8708;SDS011;4391;48.678;9.280;2023-06-26T08:34:51;12.52;;;3.97;;
8708;SDS011;4391;48.678;9.280;2023-06-26T08:37:18;9.40;;;3.70;;
8708;SDS011;4391;48.678;9.280;2023-06-26T08:39:45;7.90;;;3.80;;
8708;SDS011;4391;48.678;9.280;2023-06-26T08:42:11;6.75;;;3.60;;
8708;SDS011;4391;48.678;9.280;2023-06-26T08:44:38;8.60;;;3.90;;
8708;SDS011;4391;48.678;9.280;2023-06-26T08:47:05;9.30;;;3.40;;
8708;SDS011;4391;48.678;9.280;2023-06-26T08:49:34;7.13;;;4.10;;
8708;SDS011;4391;48.678;9.280;2023-06-26T08:52:13;6.57;;;3.75;;
8708;SDS011;4391;48.678;9.280;2023-06-26T08:54:46;9.55;;;3.58;;
8708;SDS011;4391;48.678;9.280;2023-06-26T08:57:18;6.53;;;3.30;;
8708;SDS011;4391;48.678;9.280;2023-06-26T08:59:46;7.40;;;3.47;;
8708;SDS011;4391;48.678;9.280;2023-06-26T09:02:15;8.07;;;3.53;;
8708;SDS011;4391;48.678;9.280;2023-06-26T09:04:42;10.90;;;3.85;;
8708;SDS011;4391;48.678;9.280;2023-06-26T09:07:09;6.18;;;3.60;;
8708;SDS011;4391;48.678;9.280;2023-06-26T09:09:37;6.88;;;3.78;;
8708;SDS011;4391;48.678;9.280;2023-06-26T09:12:04;6.80;;;3.83;;
8708;SDS011;4391;48.678;9.280;2023-06-26T09:14:31;10.03;;;3.87;;
8708;SDS011;4391;48.678;9.280;2023-06-26T09:16:58;8.07;;;3.72;;
8708;SDS011;4391;48.678;9.280;2023-06-26T09:19:25;18.23;;;3.83;;
8708;SDS011;4391;48.678;9.280;2023-06-26T09:21:52;6.95;;;3.53;;
8708;SDS011;4391;48.678;9.280;2023-06-26T09:24:21;6.30;;;3.42;;
8708;SDS011;4391;48.678;9.280;2023-06-26T09:26:50;11.00;;;3.73;;
8708;SDS011;4391;48.678;9.280;2023-06-26T09:29:18;7.47;;;3.60;;
8708;SDS011;4391;48.678;9.280;2023-06-26T09:31:46;8.77;;;3.80;;
8708;SDS011;4391;48.678;9.280;2023-06-26T09:34:13;6.57;;;4.05;;
8708;SDS011;4391;48.678;9.280;2023-06-26T09:36:40;8.93;;;4.35;;
8708;SDS011;4391;48.678;9.280;2023-06-26T09:39:11;7.38;;;4.07;;
8708;SDS011;4391;48.678;9.280;2023-06-26T09:41:40;7.37;;;4.00;;
8708;SDS011;4391;48.678;9.280;2023-06-26T09:44:10;8.97;;;4.23;;
8708;SDS011;4391;48.678;9.280;2023-06-26T09:46:38;10.32;;;3.88;;
8708;SDS011;4391;48.678;9.280;2023-06-26T09:49:06;7.07;;;3.90;;
8708;SDS011;4391;48.678;9.280;2023-06-26T09:51:34;6.43;;;4.07;;
8708;SDS011;4391;48.678;9.280;2023-06-26T09:54:02;8.32;;;3.45;;
8708;SDS011;4391;48.678;9.280;2023-06-26T09:56:30;6.80;;;3.90;;
8708;SDS011;4391;48.678;9.280;2023-06-26T09:58:58;7.20;;;3.60;;
8708;SDS011;4391;48.678;9.280;2023-06-26T10:01:28;6.70;;;3.53;;
8708;SDS011;4391;48.678;9.280;2023-06-26T10:03:56;8.20;;;3.85;;
8708;SDS011;4391;48.678;9.280;2023-06-26T10:06:24;5.65;;;3.70;;
8708;SDS011;4391;48.678;9.280;2023-06-26T10:08:54;7.18;;;3.72;;
8708;SDS011;4391;48.678;9.280;2023-06-26T10:11:22;6.40;;;3.85;;
8708;SDS011;4391;48.678;9.280;2023-06-26T10:13:51;9.38;;;3.60;;
8708;SDS011;4391;48.678;9.280;2023-06-26T10:16:23;7.20;;;3.97;;
8708;SDS011;4391;48.678;9.280;2023-06-26T10:18:56;8.57;;;3.50;;
8708;SDS011;4391;48.678;9.280;2023-06-26T10:21:27;5.90;;;3.80;;
8708;SDS011;4391;48.678;9.280;2023-06-26T10:23:57;6.55;;;4.00;;
8708;SDS011;4391;48.678;9.280;2023-06-26T10:26:25;6.05;;;3.53;;
8708;SDS011;4391;48.678;9.280;2023-06-26T10:28:53;7.97;;;3.65;;
8708;SDS011;4391;48.678;9.280;2023-06-26T10:31:23;5.97;;;3.23;;
8708;SDS011;4391;48.678;9.280;2023-06-26T10:33:52;9.77;;;4.23;;
8708;SDS011;4391;48.678;9.280;2023-06-26T10:36:26;6.85;;;3.88;;
8708;SDS011;4391;48.678;9.280;2023-06-26T10:38:55;7.78;;;4.00;;
8708;SDS011;4391;48.678;9.280;2023-06-26T10:41:24;9.25;;;3.50;;
8708;SDS011;4391;48.678;9.280;2023-06-26T10:43:57;11.82;;;4.13;;
8708;SDS011;4391;48.678;9.280;2023-06-26T10:46:47;7.93;;;3.87;;
8708;SDS011;4391;48.678;9.280;2023-06-26T10:49:17;6.43;;;4.03;;
8708;SDS011;4391;48.678;9.280;2023-06-26T10:51:49;8.82;;;4.43;;
8708;SDS011;4391;48.678;9.280;2023-06-26T10:54:16;6.22;;;3.92;;
8708;SDS011;4391;48.678;9.280;2023-06-26T10:56:45;11.48;;;3.80;;
8708;SDS011;4391;48.678;9.280;2023-06-26T10:59:18;6.72;;;4.07;;
8708;SDS011;4391;48.678;9.280;2023-06-26T11:01:46;7.87;;;3.87;;
8708;SDS011;4391;48.678;9.280;2023-06-26T11:04:21;9.63;;;4.10;;
8708;SDS011;4391;48.678;9.280;2023-06-26T11:07:16;7.57;;;4.30;;
8708;SDS011;4391;48.678;9.280;2023-06-26T11:09:55;7.80;;;4.13;;
8708;SDS011;4391;48.678;9.280;2023-06-26T11:12:36;6.13;;;3.97;;
8708;SDS011;4391;48.678;9.280;2023-06-26T11:15:04;10.00;;;4.15;;
8708;SDS011;4391;48.678;9.280;2023-06-26T11:17:34;11.00;;;4.80;;
8708;SDS011;4391;48.678;9.280;2023-06-26T11:20:01;7.93;;;4.40;;
8708;SDS011;4391;48.678;9.280;2023-06-26T11:22:31;10.05;;;4.30;;
8708;SDS011;4391;48.678;9.280;2023-06-26T11:25:00;13.00;;;4.82;;
8708;SDS011;4391;48.678;9.280;2023-06-26T11:27:31;10.00;;;4.13;;
8708;SDS011;4391;48.678;9.280;2023-06-26T11:29:58;13.53;;;4.30;;
8708;SDS011;4391;48.678;9.280;2023-06-26T11:32:26;6.60;;;3.83;;
8708;SDS011;4391;48.678;9.280;2023-06-26T11:34:53;9.50;;;4.40;;
8708;SDS011;4391;48.678;9.280;2023-06-26T11:37:21;7.07;;;4.03;;
8708;SDS011;4391;48.678;9.280;2023-06-26T11:39:50;10.20;;;4.50;;
8708;SDS011;4391;48.678;9.280;2023-06-26T11:42:17;7.97;;;4.35;;
8708;SDS011;4391;48.678;9.280;2023-06-26T11:44:44;6.95;;;4.25;;
8708;SDS011;4391;48.678;9.280;2023-06-26T11:47:14;6.50;;;4.13;;
8708;SDS011;4391;48.678;9.280;2023-06-26T11:49:42;10.87;;;4.40;;
8708;SDS011;4391;48.678;9.280;2023-06-26T11:52:09;8.50;;;3.80;;
8708;SDS011;4391;48.678;9.280;2023-06-26T11:54:36;6.10;;;4.18;;
8708;SDS011;4391;48.678;9.280;2023-06-26T11:57:05;10.00;;;4.20;;
8708;SDS011;4391;48.678;9.280;2023-06-26T11:59:33;10.63;;;4.53;;
8708;SDS011;4391;48.678;9.280;2023-06-26T12:02:04;8.25;;;4.50;;
8708;SDS011;4391;48.678;9.280;2023-06-26T12:04:32;6.35;;;4.13;;
8708;SDS011;4391;48.678;9.280;2023-06-26T12:07:00;7.47;;;3.73;;
8708;SDS011;4391;48.678;9.280;2023-06-26T12:09:29;6.57;;;4.20;;
8708;SDS011;4391;48.678;9.280;2023-06-26T12:11:58;10.65;;;4.20;;
8708;SDS011;4391;48.678;9.280;2023-06-26T12:14:27;9.93;;;4.35;;
8708;SDS011;4391;48.678;9.280;2023-06-26T12:16:54;8.27;;;4.60;;
8708;SDS011;4391;48.678;9.280;2023-06-26T12:19:24;11.65;;;4.30;;
8708;SDS011;4391;48.678;9.280;2023-06-26T12:21:52;6.40;;;4.30;;
8708;SDS011;4391;48.678;9.280;2023-06-26T12:24:21;8.57;;;4.50;;
8708;SDS011;4391;48.678;9.280;2023-06-26T12:26:51;6.80;;;4.37;;
8708;SDS011;4391;48.678;9.280;2023-06-26T12:29:21;7.03;;;4.43;;
8708;SDS011;4391;48.678;9.280;2023-06-26T12:31:52;9.75;;;4.50;;
8708;SDS011;4391;48.678;9.280;2023-06-26T12:34:19;7.97;;;4.07;;
8708;SDS011;4391;48.678;9.280;2023-06-26T12:36:47;10.15;;;3.90;;
8708;SDS011;4391;48.678;9.280;2023-06-26T12:39:16;8.40;;;4.55;;
8708;SDS011;4391;48.678;9.280;2023-06-26T12:41:44;9.07;;;4.33;;
8708;SDS011;4391;48.678;9.280;2023-06-26T12:44:21;8.52;;;4.72;;
8708;SDS011;4391;48.678;9.280;2023-06-26T12:46:53;11.48;;;4.30;;
8708;SDS011;4391;48.678;9.280;2023-06-26T12:49:28;9.32;;;4.65;;
8708;SDS011;4391;48.678;9.280;2023-06-26T12:51:57;11.32;;;4.40;;
8708;SDS011;4391;48.678;9.280;2023-06-26T12:54:24;7.23;;;4.00;;
8708;SDS011;4391;48.678;9.280;2023-06-26T12:56:51;9.10;;;4.13;;
8708;SDS011;4391;48.678;9.280;2023-06-26T12:59:17;10.27;;;4.00;;
8708;SDS011;4391;48.678;9.280;2023-06-26T13:01:44;7.70;;;4.30;;
8708;SDS011;4391;48.678;9.280;2023-06-26T13:04:13;7.75;;;4.10;;
8708;SDS011;4391;48.678;9.280;2023-06-26T13:06:39;12.82;;;4.13;;
8708;SDS011;4391;48.678;9.280;2023-06-26T13:09:06;6.35;;;3.65;;
8708;SDS011;4391;48.678;9.280;2023-06-26T13:11:33;5.97;;;3.83;;
8708;SDS011;4391;48.678;9.280;2023-06-26T13:14:01;7.73;;;3.97;;
8708;SDS011;4391;48.678;9.280;2023-06-26T13:16:28;7.03;;;4.20;;
8708;SDS011;4391;48.678;9.280;2023-06-26T13:18:55;7.35;;;4.00;;
8708;SDS011;4391;48.678;9.280;2023-06-26T13:21:25;12.13;;;4.57;;
8708;SDS011;4391;48.678;9.280;2023-06-26T13:23:52;8.10;;;4.18;;
8708;SDS011;4391;48.678;9.280;2023-06-26T13:26:19;12.10;;;4.00;;
8708;SDS011;4391;48.678;9.280;2023-06-26T13:28:46;9.93;;;4.13;;
8708;SDS011;4391;48.678;9.280;2023-06-26T13:31:13;7.43;;;4.15;;
8708;SDS011;4391;48.678;9.280;2023-06-26T13:33:40;8.55;;;4.10;;
8708;SDS011;4391;48.678;9.280;2023-06-26T13:36:07;11.20;;;4.80;;
8708;SDS011;4391;48.678;9.280;2023-06-26T13:38:35;7.38;;;4.00;;
8708;SDS011;4391;48.678;9.280;2023-06-26T13:41:02;12.23;;;4.03;;
8708;SDS011;4391;48.678;9.280;2023-06-26T13:43:29;8.30;;;4.57;;
8708;SDS011;4391;48.678;9.280;2023-06-26T13:45:56;6.60;;;3.75;;
8708;SDS011;4391;48.678;9.280;2023-06-26T13:48:23;7.50;;;4.30;;
8708;SDS011;4391;48.678;9.280;2023-06-26T13:50:52;6.53;;;4.28;;
8708;SDS011;4391;48.678;9.280;2023-06-26T13:53:20;9.88;;;4.15;;
8708;SDS011;4391;48.678;9.280;2023-06-26T13:55:48;8.60;;;4.10;;
8708;SDS011;4391;48.678;9.280;2023-06-26T13:58:15;9.30;;;4.00;;
8708;SDS011;4391;48.678;9.280;2023-06-26T14:00:42;10.55;;;4.45;;
8708;SDS011;4391;48.678;9.280;2023-06-26T14:03:10;7.90;;;4.00;;
8708;SDS011;4391;48.678;9.280;2023-06-26T14:05:37;7.20;;;3.88;;
8708;SDS011;4391;48.678;9.280;2023-06-26T14:08:04;11.18;;;3.72;;
8708;SDS011;4391;48.678;9.280;2023-06-26T14:10:33;11.48;;;3.80;;
8708;SDS011;4391;48.678;9.280;2023-06-26T14:13:01;8.87;;;3.67;;
8708;SDS011;4391;48.678;9.280;2023-06-26T14:15:28;6.10;;;3.55;;
8708;SDS011;4391;48.678;9.280;2023-06-26T14:17:55;7.72;;;3.42;;
8708;SDS011;4391;48.678;9.280;2023-06-26T14:20:22;6.60;;;3.92;;
8708;SDS011;4391;48.678;9.280;2023-06-26T14:22:49;8.57;;;3.55;;
8708;SDS011;4391;48.678;9.280;2023-06-26T14:25:19;7.85;;;3.67;;
8708;SDS011;4391;48.678;9.280;2023-06-26T14:27:46;6.80;;;3.70;;
8708;SDS011;4391;48.678;9.280;2023-06-26T14:30:14;6.22;;;3.38;;
8708;SDS011;4391;48.678;9.280;2023-06-26T14:32:41;6.03;;;3.38;;
8708;SDS011;4391;48.678;9.280;2023-06-26T14:35:08;7.88;;;3.47;;
8708;SDS011;4391;48.678;9.280;2023-06-26T14:37:35;8.93;;;3.67;;
8708;SDS011;4391;48.678;9.280;2023-06-26T14:40:05;10.37;;;3.43;;
8708;SDS011;4391;48.678;9.280;2023-06-26T14:42:33;6.47;;;3.43;;
8708;SDS011;4391;48.678;9.280;2023-06-26T14:45:00;8.60;;;3.53;;
8708;SDS011;4391;48.678;9.280;2023-06-26T14:47:28;9.13;;;3.33;;
8708;SDS011;4391;48.678;9.280;2023-06-26T14:49:55;5.50;;;3.20;;
8708;SDS011;4391;48.678;9.280;2023-06-26T14:52:22;9.70;;;3.20;;
8708;SDS011;4391;48.678;9.280;2023-06-26T14:54:49;8.03;;;3.10;;
8708;SDS011;4391;48.678;9.280;2023-06-26T14:57:15;9.17;;;3.37;;
8708;SDS011;4391;48.678;9.280;2023-06-26T14:59:42;9.23;;;3.15;;
8708;SDS011;4391;48.678;9.280;2023-06-26T15:02:09;6.45;;;3.40;;
8708;SDS011;4391;48.678;9.280;2023-06-26T15:04:37;7.32;;;2.83;;
8708;SDS011;4391;48.678;9.280;2023-06-26T15:07:04;6.72;;;3.08;;
8708;SDS011;4391;48.678;9.280;2023-06-26T15:09:31;6.60;;;3.10;;
8708;SDS011;4391;48.678;9.280;2023-06-26T15:11:59;5.20;;;2.60;;
8708;SDS011;4391;48.678;9.280;2023-06-26T15:14:26;8.52;;;2.97;;
8708;SDS011;4391;48.678;9.280;2023-06-26T15:16:53;5.07;;;2.25;;
8708;SDS011;4391;48.678;9.280;2023-06-26T15:19:20;7.30;;;2.90;;